createdAt,value
2022-11-29T00:00:49.987Z,2.82
2022-11-29T00:03:16.427Z,2.83
2022-11-29T00:05:42.808Z,2.83
2022-11-29T00:08:09.077Z,2.82
2022-11-29T00:10:38.385Z,2.82
2022-11-29T00:13:04.692Z,2.85
2022-11-29T00:15:31.043Z,2.84
2022-11-29T00:17:57.306Z,2.84
2022-11-29T00:20:23.577Z,2.86
2022-11-29T00:22:49.886Z,2.82
2022-11-29T00:25:16.264Z,2.82
2022-11-29T00:27:42.511Z,2.84
2022-11-29T00:30:09.016Z,2.85
2022-11-29T00:32:35.459Z,2.85
2022-11-29T00:35:06.634Z,2.84
2022-11-29T00:37:35.802Z,2.81
2022-11-29T00:40:02.195Z,2.82
2022-11-29T00:42:28.431Z,2.85
2022-11-29T00:44:54.730Z,2.86
2022-11-29T00:47:20.963Z,2.84
2022-11-29T00:49:47.299Z,2.85
2022-11-29T00:52:13.540Z,2.86
2022-11-29T00:54:39.784Z,2.86
2022-11-29T00:57:06.028Z,2.87
2022-11-29T00:59:32.296Z,2.88
2022-11-29T01:01:58.749Z,2.90
2022-11-29T01:04:25.209Z,2.85
2022-11-29T01:06:51.995Z,2.86
2022-11-29T01:09:18.891Z,2.88
2022-11-29T01:11:45.262Z,2.87
2022-11-29T01:14:11.913Z,2.89
2022-11-29T01:16:38.409Z,2.91
2022-11-29T01:19:04.937Z,2.88
2022-11-29T01:21:31.295Z,2.88
2022-11-29T01:23:57.594Z,2.88
2022-11-29T01:26:25.308Z,2.88
2022-11-29T01:28:52.357Z,2.88
2022-11-29T01:31:20.410Z,2.86
2022-11-29T01:33:46.683Z,2.85
2022-11-29T01:36:14.067Z,2.84
2022-11-29T01:38:42.299Z,2.83
2022-11-29T01:41:10.922Z,2.83
2022-11-29T01:43:55.886Z,2.84
2022-11-29T01:46:22.285Z,2.80
2022-11-29T01:48:49.081Z,2.78
2022-11-29T01:51:15.414Z,2.78
2022-11-29T01:53:41.670Z,2.79
2022-11-29T01:56:08.086Z,2.76
2022-11-29T01:58:34.975Z,2.77
2022-11-29T02:01:01.736Z,2.75
2022-11-29T02:03:28.084Z,2.76
2022-11-29T02:05:54.861Z,2.72
2022-11-29T02:08:27.363Z,2.71
2022-11-29T02:11:12.435Z,2.71
2022-11-29T02:13:56.602Z,2.69
2022-11-29T02:16:35.170Z,2.66
2022-11-29T02:19:14.510Z,2.66
2022-11-29T02:21:46.657Z,2.65
2022-11-29T02:24:22.273Z,2.67
2022-11-29T02:26:54.602Z,2.65
2022-11-29T02:29:39.589Z,2.65
2022-11-29T02:32:24.801Z,2.67
2022-11-29T02:34:53.791Z,2.65
2022-11-29T02:37:26.265Z,2.63
2022-11-29T02:39:52.760Z,2.64
2022-11-29T02:42:24.782Z,2.63
2022-11-29T02:44:54.194Z,2.66
2022-11-29T02:47:36.846Z,2.65
2022-11-29T02:50:03.071Z,2.66
2022-11-29T02:52:34.776Z,2.68
2022-11-29T02:55:06.791Z,2.69
2022-11-29T02:57:45.336Z,2.70
2022-11-29T03:00:21.673Z,2.72
2022-11-29T03:02:50.970Z,2.73
2022-11-29T03:05:29.466Z,2.73
2022-11-29T03:08:04.638Z,2.75
2022-11-29T03:10:38.729Z,2.76
2022-11-29T03:13:10.216Z,2.75
2022-11-29T03:15:44.735Z,2.77
2022-11-29T03:18:31.186Z,2.76
2022-11-29T03:21:17.580Z,2.77
2022-11-29T03:24:04.098Z,2.75
2022-11-29T03:26:35.456Z,2.74
2022-11-29T03:29:06.958Z,2.75
2022-11-29T03:31:36.057Z,2.75
2022-11-29T03:34:11.915Z,2.75
2022-11-29T03:36:54.638Z,2.79
2022-11-29T03:39:24.717Z,2.76
2022-11-29T03:42:01.068Z,2.75
2022-11-29T03:44:28.424Z,2.73
2022-11-29T03:46:54.671Z,2.75
2022-11-29T03:49:30.895Z,2.72
2022-11-29T03:52:04.276Z,2.76
2022-11-29T03:54:43.464Z,2.73
2022-11-29T03:57:10.842Z,2.72
2022-11-29T03:59:47.013Z,2.72
2022-11-29T04:02:32.030Z,2.71
2022-11-29T04:05:10.363Z,2.70
2022-11-29T04:07:46.184Z,2.67
2022-11-29T04:10:30.955Z,2.69
2022-11-29T04:12:57.567Z,2.71
2022-11-29T04:15:26.905Z,2.71
2022-11-29T04:18:12.049Z,2.70
2022-11-29T04:20:48.499Z,2.69
2022-11-29T04:23:38.716Z,2.68
2022-11-29T04:26:23.654Z,2.69
2022-11-29T04:29:08.430Z,2.69
2022-11-29T04:31:37.794Z,2.69
2022-11-29T04:34:07.036Z,2.67
2022-11-29T04:36:42.385Z,2.66
2022-11-29T04:39:13.805Z,2.68
2022-11-29T04:41:56.964Z,2.68
2022-11-29T04:44:31.331Z,2.70
2022-11-29T04:47:13.192Z,2.70
2022-11-29T04:49:45.510Z,2.69
2022-11-29T04:52:11.792Z,2.70
2022-11-29T04:54:49.882Z,2.69
2022-11-29T04:57:16.086Z,2.68
2022-11-29T04:59:49.411Z,2.70
2022-11-29T05:02:24.350Z,2.67
2022-11-29T05:04:53.642Z,2.66
2022-11-29T05:07:38.457Z,2.68
2022-11-29T05:10:28.591Z,2.68
2022-11-29T05:12:57.578Z,2.65
2022-11-29T05:15:35.183Z,2.67
2022-11-29T05:18:26.312Z,2.65
2022-11-29T05:21:01.383Z,2.67
2022-11-29T05:23:46.479Z,2.68
2022-11-29T05:26:17.705Z,2.69
2022-11-29T05:28:48.535Z,2.67
2022-11-29T05:31:23.639Z,2.69
2022-11-29T05:34:08.500Z,2.68
2022-11-29T05:36:49.211Z,2.70
2022-11-29T05:39:15.441Z,2.69
2022-11-29T05:42:04.963Z,2.68
2022-11-29T05:44:50.925Z,2.71
2022-11-29T05:47:31.745Z,2.73
2022-11-29T05:49:58.020Z,2.70
2022-11-29T05:52:24.936Z,2.71
2022-11-29T05:55:03.562Z,2.72
2022-11-29T05:57:46.890Z,2.71
2022-11-29T06:00:14.695Z,2.70
2022-11-29T06:02:48.812Z,2.74
2022-11-29T06:05:22.840Z,2.75
2022-11-29T06:08:07.985Z,2.73
2022-11-29T06:10:36.885Z,2.71
2022-11-29T06:13:03.298Z,2.70
2022-11-29T06:15:52.952Z,2.70
2022-11-29T06:18:38.504Z,2.72
2022-11-29T06:21:17.415Z,2.71
2022-11-29T06:23:51.924Z,2.70
2022-11-29T06:26:30.237Z,2.71
2022-11-29T06:29:15.361Z,2.71
2022-11-29T06:31:44.411Z,2.65
2022-11-29T06:34:13.801Z,2.65
2022-11-29T06:36:59.964Z,2.63
2022-11-29T06:39:26.320Z,2.63
2022-11-29T06:41:52.591Z,2.63
2022-11-29T06:44:18.932Z,2.62
2022-11-29T06:46:46.729Z,2.64
2022-11-29T06:49:16.946Z,2.66
2022-11-29T06:51:58.391Z,2.69
2022-11-29T06:54:30.702Z,2.71
2022-11-29T06:57:15.947Z,2.74
2022-11-29T06:59:54.719Z,2.75
2022-11-29T07:02:39.566Z,2.74
2022-11-29T07:05:13.694Z,2.77
2022-11-29T07:07:41.280Z,2.81
2022-11-29T07:10:15.073Z,2.82
2022-11-29T07:12:41.566Z,2.85
2022-11-29T07:15:09.674Z,2.84
2022-11-29T07:17:39.980Z,2.82
2022-11-29T07:20:15.161Z,2.81
2022-11-29T07:22:49.317Z,2.83
2022-11-29T07:25:34.246Z,2.81
2022-11-29T07:28:03.522Z,2.83
2022-11-29T07:30:38.064Z,2.86
2022-11-29T07:33:07.153Z,2.83
2022-11-29T07:35:48.707Z,2.83
2022-11-29T07:38:38.313Z,2.84
2022-11-29T07:41:17.448Z,2.86
2022-11-29T07:43:51.857Z,2.86
2022-11-29T07:46:18.162Z,2.92
2022-11-29T07:48:44.444Z,2.91
2022-11-29T07:51:10.962Z,2.91
2022-11-29T07:53:40.691Z,2.94
2022-11-29T07:56:07.020Z,3.03
2022-11-29T07:58:33.331Z,3.04
2022-11-29T08:00:59.677Z,3.01
2022-11-29T08:03:25.955Z,3.04
2022-11-29T08:05:52.240Z,3.05
2022-11-29T08:08:18.499Z,3.03
2022-11-29T08:10:44.783Z,3.04
2022-11-29T08:13:11.089Z,3.11
2022-11-29T08:15:37.387Z,3.08
2022-11-29T08:18:03.711Z,3.06
2022-11-29T08:20:29.949Z,3.04
2022-11-29T08:22:57.161Z,3.06
2022-11-29T08:25:23.924Z,3.04
2022-11-29T08:27:51.589Z,3.02
2022-11-29T08:30:24.036Z,3.05
2022-11-29T08:32:51.769Z,3.05
2022-11-29T08:35:18.974Z,3.06
2022-11-29T08:37:45.198Z,3.02
2022-11-29T08:40:11.714Z,2.99
2022-11-29T08:42:37.963Z,3.05
2022-11-29T08:45:04.664Z,3.09
2022-11-29T08:47:36.792Z,3.09
2022-11-29T08:50:14.514Z,3.13
2022-11-29T08:53:01.348Z,3.10
2022-11-29T08:55:28.906Z,3.14
2022-11-29T08:58:00.208Z,3.14
2022-11-29T09:00:26.596Z,3.12
2022-11-29T09:02:52.861Z,3.17
2022-11-29T09:05:19.247Z,3.19
2022-11-29T09:07:46.810Z,3.18
2022-11-29T09:10:13.164Z,3.23
2022-11-29T09:12:39.911Z,3.30
2022-11-29T09:15:07.619Z,3.35
2022-11-29T09:17:33.885Z,3.35
2022-11-29T09:20:00.167Z,3.43
2022-11-29T09:22:26.424Z,3.44
2022-11-29T09:24:52.708Z,3.43
2022-11-29T09:27:18.981Z,3.38
2022-11-29T09:29:45.349Z,3.41
2022-11-29T09:32:11.605Z,3.41
2022-11-29T09:34:37.871Z,3.45
2022-11-29T09:37:05.068Z,3.42
2022-11-29T09:39:31.482Z,3.41
2022-11-29T09:42:03.739Z,3.43
2022-11-29T09:44:38.226Z,3.44
2022-11-29T09:47:17.576Z,3.44
2022-11-29T09:50:11.285Z,3.48
2022-11-29T09:52:37.574Z,3.49
2022-11-29T09:55:19.260Z,3.50
2022-11-29T09:57:46.176Z,3.58
2022-11-29T10:00:16.018Z,3.56
2022-11-29T10:02:47.450Z,3.61
2022-11-29T10:05:39.936Z,3.66
2022-11-29T10:08:08.609Z,3.69
2022-11-29T10:10:43.124Z,3.67
2022-11-29T10:13:15.837Z,3.70
2022-11-29T10:15:44.137Z,3.76
2022-11-29T10:18:23.194Z,3.74
2022-11-29T10:20:50.518Z,3.80
2022-11-29T10:23:27.591Z,3.84
2022-11-29T10:25:55.629Z,3.88
2022-11-29T10:28:23.746Z,3.81
2022-11-29T10:30:51.160Z,3.78
2022-11-29T10:33:22.033Z,3.77
2022-11-29T10:35:50.767Z,3.75
2022-11-29T10:38:32.534Z,3.82
2022-11-29T10:41:04.061Z,3.86
2022-11-29T10:43:30.367Z,3.93
2022-11-29T10:45:58.629Z,3.98
2022-11-29T10:48:27.153Z,3.96
2022-11-29T10:50:53.501Z,4.03
2022-11-29T10:53:22.529Z,4.07
2022-11-29T10:55:50.824Z,4.09
2022-11-29T10:58:27.923Z,4.07
2022-11-29T11:01:06.809Z,4.10
2022-11-29T11:03:43.311Z,4.03
2022-11-29T11:06:17.595Z,4.08
2022-11-29T11:08:51.589Z,4.01
2022-11-29T11:11:25.645Z,4.09
2022-11-29T11:13:58.698Z,4.12
2022-11-29T11:16:26.513Z,4.12
2022-11-29T11:18:53.144Z,4.06
2022-11-29T11:21:20.984Z,4.02
2022-11-29T11:23:55.273Z,4.10
2022-11-29T11:26:22.333Z,4.11
2022-11-29T11:28:58.262Z,4.15
2022-11-29T11:31:35.641Z,4.13
2022-11-29T11:34:23.569Z,4.20
2022-11-29T11:36:49.811Z,4.21
2022-11-29T11:39:19.727Z,4.17
2022-11-29T11:42:05.194Z,4.10
2022-11-29T11:44:49.758Z,4.10
2022-11-29T11:47:19.211Z,4.15
2022-11-29T11:49:50.251Z,4.16
2022-11-29T11:52:20.159Z,4.16
2022-11-29T11:54:51.004Z,4.20
2022-11-29T11:57:18.647Z,4.18
2022-11-29T11:59:48.769Z,4.19
2022-11-29T12:02:25.544Z,4.12
2022-11-29T12:04:53.993Z,4.11
2022-11-29T12:07:44.926Z,4.09
2022-11-29T12:10:22.442Z,4.14
2022-11-29T12:12:49.177Z,4.14
2022-11-29T12:15:20.025Z,4.16
2022-11-29T12:17:55.955Z,4.13
2022-11-29T12:20:24.911Z,4.11
2022-11-29T12:22:53.871Z,4.10
2022-11-29T12:25:23.575Z,4.12
2022-11-29T12:27:50.286Z,4.08
2022-11-29T12:30:17.706Z,4.04
2022-11-29T12:32:46.681Z,4.03
2022-11-29T12:35:35.008Z,4.03
2022-11-29T12:38:20.295Z,4.00
2022-11-29T12:40:53.763Z,3.91
2022-11-29T12:43:26.112Z,3.88
2022-11-29T12:46:11.612Z,3.89
2022-11-29T12:48:49.705Z,3.84
2022-11-29T12:51:34.733Z,3.81
2022-11-29T12:54:19.323Z,3.82
2022-11-29T12:57:05.882Z,3.80
2022-11-29T12:59:45.348Z,3.79
2022-11-29T13:02:29.948Z,3.80
2022-11-29T13:05:14.641Z,3.76
2022-11-29T13:08:01.320Z,3.76
2022-11-29T13:10:35.822Z,3.73
2022-11-29T13:13:11.593Z,3.66
2022-11-29T13:16:07.051Z,3.69
2022-11-29T13:18:42.133Z,3.73
2022-11-29T13:21:16.294Z,3.73
2022-11-29T13:26:35.659Z,3.71
2022-11-29T13:29:03.248Z,3.73
2022-11-29T13:31:29.953Z,3.65
2022-11-29T13:33:56.231Z,3.64
2022-11-29T13:36:43.317Z,3.66
2022-11-29T13:39:31.895Z,3.65
2022-11-29T13:41:58.134Z,3.64
2022-11-29T13:44:33.790Z,3.59
2022-11-29T13:47:13.506Z,3.55
2022-11-29T13:49:58.602Z,3.57
2022-11-29T13:52:34.784Z,3.59
2022-11-29T13:55:06.957Z,3.53
2022-11-29T14:00:44.710Z,3.45
2022-11-29T14:03:23.328Z,3.45
2022-11-29T14:05:49.802Z,3.46
2022-11-29T14:08:25.669Z,3.45
2022-11-29T14:10:53.938Z,3.44
2022-11-29T14:13:22.679Z,3.47
2022-11-29T14:15:57.341Z,3.49
2022-11-29T14:18:42.099Z,3.44
2022-11-29T14:21:08.439Z,3.45
2022-11-29T14:23:36.492Z,3.46
2022-11-29T14:26:02.873Z,3.42
2022-11-29T14:28:31.933Z,3.41
2022-11-29T14:31:01.575Z,3.43
2022-11-29T14:33:40.402Z,3.44
2022-11-29T14:36:18.954Z,3.41
2022-11-29T14:39:03.994Z,3.42
2022-11-29T14:41:53.284Z,3.40
2022-11-29T14:44:33.060Z,3.37
2022-11-29T14:47:04.268Z,3.39
2022-11-29T14:49:31.804Z,3.37
2022-11-29T14:52:17.510Z,3.34
2022-11-29T14:54:58.566Z,3.35
2022-11-29T14:57:43.820Z,3.31
2022-11-29T15:00:11.843Z,3.31
2022-11-29T15:02:44.557Z,3.31
2022-11-29T15:05:24.232Z,3.28
2022-11-29T15:07:52.738Z,3.30
2022-11-29T15:10:22.154Z,3.35
2022-11-29T15:12:49.280Z,3.34
2022-11-29T15:15:27.977Z,3.32
2022-11-29T15:18:03.455Z,3.27
2022-11-29T15:20:39.197Z,3.24
2022-11-29T15:23:08.310Z,3.23
2022-11-29T15:25:34.685Z,3.22
2022-11-29T15:28:02.222Z,3.22
2022-11-29T15:30:30.526Z,3.29
2022-11-29T15:32:58.289Z,3.34
2022-11-29T15:35:24.817Z,3.36
2022-11-29T15:37:51.890Z,3.44
2022-11-29T15:40:31.223Z,3.48
2022-11-29T15:43:09.558Z,3.47
2022-11-29T15:45:37.703Z,3.55
2022-11-29T15:48:16.285Z,3.51
2022-11-29T15:51:01.010Z,3.50
2022-11-29T15:53:31.678Z,3.50
2022-11-29T15:56:00.706Z,3.48
2022-11-29T15:58:29.116Z,3.50
2022-11-29T16:00:58.303Z,3.49
2022-11-29T16:03:31.890Z,3.53
2022-11-29T16:06:15.087Z,3.52
2022-11-29T16:08:42.067Z,3.55
2022-11-29T16:11:12.963Z,3.56
2022-11-29T16:13:40.260Z,3.49
2022-11-29T16:16:11.942Z,3.46
2022-11-29T16:18:40.970Z,3.43
2022-11-29T16:21:07.936Z,3.45
2022-11-29T16:23:38.376Z,3.45
2022-11-29T16:26:12.166Z,3.49
2022-11-29T16:28:49.137Z,3.46
2022-11-29T16:31:19.205Z,3.46
2022-11-29T16:33:47.440Z,3.48
2022-11-29T16:36:19.172Z,3.44
2022-11-29T16:38:46.902Z,3.43
2022-11-29T16:41:21.303Z,3.44
2022-11-29T16:43:53.519Z,3.51
2022-11-29T16:46:19.802Z,3.53
2022-11-29T16:48:46.150Z,3.50
2022-11-29T16:51:16.117Z,3.51
2022-11-29T16:53:44.143Z,3.44
2022-11-29T16:56:15.045Z,3.45
2022-11-29T16:59:25.255Z,3.47
2022-11-29T17:01:31.879Z,3.47
2022-11-29T17:03:59.870Z,3.47
2022-11-29T17:06:27.563Z,3.43
2022-11-29T17:08:55.341Z,3.44
2022-11-29T17:11:21.639Z,3.42
2022-11-29T17:13:48.448Z,3.44
2022-11-29T17:16:15.569Z,3.45
2022-11-29T17:18:43.235Z,3.47
2022-11-29T17:21:22.909Z,3.45
2022-11-29T17:23:49.516Z,3.44
2022-11-29T17:26:15.874Z,3.49
2022-11-29T17:28:43.354Z,3.50
2022-11-29T17:31:13.796Z,3.54
2022-11-29T17:33:40.207Z,3.57
2022-11-29T17:36:07.093Z,3.53
2022-11-29T17:38:33.624Z,3.48
2022-11-29T17:40:59.878Z,3.49
2022-11-29T17:43:26.165Z,3.47
2022-11-29T17:45:52.558Z,3.43
2022-11-29T17:48:38.691Z,3.47
2022-11-29T17:51:13.527Z,3.47
2022-11-29T17:53:52.212Z,3.45
2022-11-29T17:56:22.601Z,3.47
2022-11-29T17:58:55.844Z,3.46
2022-11-29T18:01:23.738Z,3.44
2022-11-29T18:03:54.015Z,3.45
2022-11-29T18:06:21.247Z,3.48
2022-11-29T18:08:48.899Z,3.48
2022-11-29T18:11:16.783Z,3.51
2022-11-29T18:13:43.160Z,3.50
2022-11-29T18:16:11.241Z,3.46
2022-11-29T18:18:37.955Z,3.45
2022-11-29T18:23:50.645Z,3.44
2022-11-29T18:26:18.750Z,3.42
2022-11-29T18:28:45.414Z,3.43
2022-11-29T18:31:12.311Z,3.45
2022-11-29T18:33:39.425Z,3.41
2022-11-29T18:36:08.603Z,3.42
2022-11-29T18:38:34.858Z,3.41
2022-11-29T18:41:06.108Z,3.41
2022-11-29T18:43:32.349Z,3.38
2022-11-29T18:45:58.689Z,3.38
2022-11-29T18:48:25.014Z,3.40
2022-11-29T18:50:51.254Z,3.37
2022-11-29T18:53:17.556Z,3.36
2022-11-29T18:55:43.848Z,3.35
2022-11-29T18:58:10.143Z,3.37
2022-11-29T19:00:36.480Z,3.33
2022-11-29T19:03:02.751Z,3.35
2022-11-29T19:05:29.043Z,3.35
2022-11-29T19:07:55.421Z,3.36
2022-11-29T19:10:21.734Z,3.34
2022-11-29T19:12:47.992Z,3.36
2022-11-29T19:15:14.294Z,3.35
2022-11-29T19:17:43.372Z,3.34
2022-11-29T19:20:10.386Z,3.35
2022-11-29T19:22:36.622Z,3.36
2022-11-29T19:25:02.961Z,3.36
2022-11-29T19:27:29.200Z,3.37
2022-11-29T19:29:55.440Z,3.35
2022-11-29T19:32:21.677Z,3.36
2022-11-29T19:34:47.936Z,3.35
2022-11-29T19:37:14.205Z,3.35
2022-11-29T19:39:40.451Z,3.32
2022-11-29T19:42:06.692Z,3.32
2022-11-29T19:44:48.317Z,3.31
2022-11-29T19:47:19.180Z,3.30
2022-11-29T19:49:46.847Z,3.31
2022-11-29T19:52:13.304Z,3.28
2022-11-29T19:54:39.549Z,3.30
2022-11-29T19:57:05.796Z,3.29
2022-11-29T19:59:33.308Z,3.26
2022-11-29T20:01:59.810Z,3.29
2022-11-29T20:04:26.064Z,3.27
2022-11-29T20:06:54.431Z,3.28
2022-11-29T20:09:22.374Z,3.31
2022-11-29T20:11:48.644Z,3.29
2022-11-29T20:14:15.346Z,3.28
2022-11-29T20:16:41.664Z,3.27
2022-11-29T20:19:09.707Z,3.28
2022-11-29T20:21:38.070Z,3.29
2022-11-29T20:24:05.920Z,3.29
2022-11-29T20:26:34.159Z,3.30
2022-11-29T20:29:02.099Z,3.29
2022-11-29T20:31:29.479Z,3.29
2022-11-29T20:33:57.335Z,3.31
2022-11-29T20:36:38.873Z,3.30
2022-11-29T20:39:08.207Z,3.31
2022-11-29T20:41:41.153Z,3.27
2022-11-29T20:44:10.586Z,3.28
2022-11-29T20:46:37.229Z,3.25
2022-11-29T20:49:06.656Z,3.25
2022-11-29T20:51:42.681Z,3.28
2022-11-29T20:54:10.478Z,3.27
2022-11-29T20:56:36.729Z,3.25
2022-11-29T20:59:02.970Z,3.27
2022-11-29T21:01:29.249Z,3.28
2022-11-29T21:03:55.564Z,3.29
2022-11-29T21:06:21.881Z,3.28
2022-11-29T21:08:48.841Z,3.26
2022-11-29T21:11:15.310Z,3.25
2022-11-29T21:13:41.651Z,3.25
2022-11-29T21:16:09.761Z,3.25
2022-11-29T21:18:36.188Z,3.26
2022-11-29T21:21:22.724Z,3.24
2022-11-29T21:24:05.172Z,3.27
2022-11-29T21:26:40.056Z,3.27
2022-11-29T21:29:19.049Z,3.23
2022-11-29T21:31:46.129Z,3.23
2022-11-29T21:34:12.423Z,3.25
2022-11-29T21:36:38.918Z,3.25
2022-11-29T21:39:10.673Z,3.28
2022-11-29T21:41:36.925Z,3.29
2022-11-29T21:44:07.738Z,3.27
2022-11-29T21:46:34.625Z,3.27
2022-11-29T21:49:00.940Z,3.24
2022-11-29T21:51:32.416Z,3.23
2022-11-29T21:53:58.676Z,3.20
2022-11-29T21:56:24.951Z,3.19
2022-11-29T21:58:51.223Z,3.19
2022-11-29T22:01:18.743Z,3.18
2022-11-29T22:03:45.471Z,3.16
2022-11-29T22:06:13.314Z,3.16
2022-11-29T22:08:40.462Z,3.17
2022-11-29T22:11:08.215Z,3.14
2022-11-29T22:13:34.958Z,3.15
2022-11-29T22:16:08.019Z,3.16
2022-11-29T22:18:34.544Z,3.15
2022-11-29T22:21:01.513Z,3.14
2022-11-29T22:23:27.769Z,3.15
2022-11-29T22:25:54.016Z,3.14
2022-11-29T22:28:20.252Z,3.14
2022-11-29T22:30:46.491Z,3.12
2022-11-29T22:33:13.553Z,3.14
2022-11-29T22:35:43.467Z,3.12
2022-11-29T22:38:09.739Z,3.16
2022-11-29T22:40:35.986Z,3.15
2022-11-29T22:43:02.220Z,3.16
2022-11-29T22:45:28.469Z,3.16
2022-11-29T22:47:54.737Z,3.17
2022-11-29T22:50:21.019Z,3.17
2022-11-29T22:52:47.259Z,3.19
2022-11-29T22:55:13.551Z,3.16
2022-11-29T22:57:39.893Z,3.16
2022-11-29T23:00:06.515Z,3.16
2022-11-29T23:02:32.799Z,3.16
2022-11-29T23:04:59.103Z,3.15
2022-11-29T23:07:25.732Z,3.18
2022-11-29T23:09:52.036Z,3.17
2022-11-29T23:12:18.340Z,3.19
2022-11-29T23:14:44.972Z,3.18
2022-11-29T23:17:11.460Z,3.16
2022-11-29T23:19:37.732Z,3.17
2022-11-29T23:22:03.991Z,3.17
2022-11-29T23:24:30.257Z,3.15
2022-11-29T23:26:56.532Z,3.16
2022-11-29T23:29:22.810Z,3.16
2022-11-29T23:31:49.331Z,3.15
2022-11-29T23:34:15.756Z,3.17
2022-11-29T23:36:42.107Z,3.15
2022-11-29T23:39:08.472Z,3.16
2022-11-29T23:41:35.669Z,3.14
2022-11-29T23:44:05.758Z,3.15
2022-11-29T23:46:32.354Z,3.18
2022-11-29T23:48:58.631Z,3.16
2022-11-29T23:51:24.879Z,3.18
2022-11-29T23:53:54.173Z,3.19
2022-11-29T23:56:21.223Z,3.20
2022-11-29T23:58:47.761Z,3.16
